createdAt,value
2017-09-16T00:00:39.281Z,12.13
2017-09-16T00:03:09.196Z,12.13
2017-09-16T00:05:38.338Z,12.07
2017-09-16T00:08:07.666Z,12.03
2017-09-16T00:10:36.802Z,12.01
2017-09-16T00:13:05.983Z,12.02
2017-09-16T00:15:35.503Z,12.02
2017-09-16T00:18:04.665Z,11.97
2017-09-16T00:20:33.786Z,11.93
2017-09-16T00:23:03.912Z,11.96
2017-09-16T00:25:33.110Z,11.96
2017-09-16T00:28:02.211Z,11.94
2017-09-16T00:30:31.352Z,11.93
2017-09-16T00:33:00.572Z,11.89
2017-09-16T00:35:29.698Z,11.86
2017-09-16T00:37:59.082Z,11.84
2017-09-16T00:40:29.006Z,11.81
2017-09-16T00:42:58.194Z,11.78
2017-09-16T00:45:27.597Z,11.74
2017-09-16T00:47:57.615Z,11.70
2017-09-16T00:50:26.905Z,11.67
2017-09-16T00:52:56.323Z,11.61
2017-09-16T00:55:26.282Z,11.59
2017-09-16T00:57:55.434Z,11.58
2017-09-16T01:00:24.879Z,11.56
2017-09-16T01:02:54.029Z,11.51
2017-09-16T01:05:23.130Z,11.47
2017-09-16T01:07:52.499Z,11.45
2017-09-16T01:10:21.735Z,11.41
2017-09-16T01:12:50.911Z,11.39
2017-09-16T01:15:21.215Z,11.34
2017-09-16T01:17:52.081Z,11.31
2017-09-16T01:20:21.323Z,11.29
2017-09-16T01:22:50.860Z,11.27
2017-09-16T01:25:20.064Z,11.28
2017-09-16T01:27:50.107Z,11.26
2017-09-16T01:30:19.317Z,11.21
2017-09-16T01:32:48.529Z,11.19
2017-09-16T01:35:17.873Z,11.15
2017-09-16T01:37:47.260Z,11.17
2017-09-16T01:40:16.485Z,11.18
2017-09-16T01:42:45.674Z,11.17
2017-09-16T01:45:15.778Z,11.16
2017-09-16T01:47:44.951Z,11.16
2017-09-16T01:50:14.151Z,11.12
2017-09-16T01:52:43.706Z,11.12
2017-09-16T01:55:12.855Z,11.02
2017-09-16T01:57:43.016Z,10.91
2017-09-16T02:00:12.557Z,10.84
2017-09-16T02:02:41.699Z,10.88
2017-09-16T02:05:11.690Z,10.90
2017-09-16T02:07:41.019Z,10.93
2017-09-16T02:10:10.730Z,10.95
2017-09-16T02:12:39.898Z,10.95
2017-09-16T02:15:09.230Z,10.94
2017-09-16T02:17:39.106Z,10.90
2017-09-16T02:20:09.155Z,10.89
2017-09-16T02:22:39.455Z,10.88
2017-09-16T02:25:08.651Z,10.87
2017-09-16T02:27:37.827Z,10.87
2017-09-16T02:30:07.332Z,10.88
2017-09-16T02:32:37.250Z,10.87
2017-09-16T02:35:06.736Z,10.84
2017-09-16T02:37:36.926Z,10.82
2017-09-16T02:40:07.114Z,10.81
2017-09-16T02:42:36.982Z,10.78
2017-09-16T02:45:06.205Z,10.78
2017-09-16T02:47:35.386Z,10.76
2017-09-16T02:50:04.494Z,10.76
2017-09-16T02:52:33.877Z,10.76
2017-09-16T02:55:02.985Z,10.74
2017-09-16T02:57:32.183Z,10.72
2017-09-16T03:00:01.732Z,10.62
2017-09-16T03:02:30.915Z,10.61
2017-09-16T03:05:00.040Z,10.61
2017-09-16T03:07:29.365Z,10.63
2017-09-16T03:09:59.286Z,10.64
2017-09-16T03:12:28.469Z,10.62
2017-09-16T03:14:57.728Z,10.60
2017-09-16T03:17:27.609Z,10.58
2017-09-16T03:19:56.727Z,10.55
2017-09-16T03:22:26.654Z,10.50
2017-09-16T03:24:55.763Z,10.46
2017-09-16T03:27:24.916Z,10.46
2017-09-16T03:29:54.338Z,10.42
2017-09-16T03:32:23.926Z,10.40
2017-09-16T03:34:53.066Z,10.37
2017-09-16T03:37:22.517Z,10.35
2017-09-16T03:39:51.662Z,10.34
2017-09-16T03:42:20.819Z,10.31
2017-09-16T03:44:50.126Z,10.28
2017-09-16T03:47:19.253Z,10.25
2017-09-16T03:49:49.205Z,10.23
2017-09-16T03:52:18.688Z,10.25
2017-09-16T03:54:47.830Z,10.28
2017-09-16T03:57:17.715Z,10.35
2017-09-16T03:59:47.941Z,10.41
2017-09-16T04:02:34.891Z,10.46
2017-09-16T04:05:05.123Z,10.57
2017-09-16T04:07:35.026Z,10.65
2017-09-16T04:10:04.188Z,10.70
2017-09-16T04:12:33.593Z,10.73
2017-09-16T04:15:03.478Z,10.73
2017-09-16T04:17:32.693Z,10.75
2017-09-16T04:20:02.623Z,10.75
2017-09-16T04:22:31.736Z,10.78
2017-09-16T04:25:00.830Z,10.79
2017-09-16T04:27:30.269Z,10.82
2017-09-16T04:29:59.378Z,10.83
2017-09-16T04:32:28.527Z,10.84
2017-09-16T04:34:57.756Z,10.86
2017-09-16T04:37:26.868Z,10.85
2017-09-16T04:39:56.074Z,10.88
2017-09-16T04:42:25.527Z,10.87
2017-09-16T04:44:55.413Z,10.92
2017-09-16T04:47:24.584Z,10.94
2017-09-16T04:49:54.114Z,10.95
2017-09-16T04:52:23.215Z,10.96
2017-09-16T04:54:52.330Z,10.98
2017-09-16T04:57:21.860Z,10.95
2017-09-16T04:59:50.984Z,10.97
2017-09-16T05:02:20.116Z,10.99
2017-09-16T05:04:49.525Z,11.01
2017-09-16T05:07:18.649Z,11.05
2017-09-16T05:09:47.953Z,11.10
2017-09-16T05:12:17.541Z,11.11
2017-09-16T05:14:46.711Z,11.10
2017-09-16T05:17:15.935Z,11.10
2017-09-16T05:19:45.389Z,11.12
2017-09-16T05:22:14.605Z,11.10
2017-09-16T05:24:43.854Z,11.10
2017-09-16T05:27:13.257Z,11.10
2017-09-16T05:29:43.173Z,11.08
2017-09-16T05:32:12.407Z,11.07
2017-09-16T05:34:41.748Z,11.09
2017-09-16T05:37:10.862Z,11.10
2017-09-16T05:39:40.560Z,11.11
2017-09-16T05:42:10.502Z,11.13
2017-09-16T05:44:39.638Z,11.18
2017-09-16T05:47:09.274Z,11.23
2017-09-16T05:49:38.650Z,11.27
2017-09-16T05:52:07.873Z,11.29
2017-09-16T05:54:36.996Z,11.33
2017-09-16T05:57:08.067Z,11.39
2017-09-16T05:59:37.962Z,11.46
2017-09-16T06:02:07.894Z,11.49
2017-09-16T06:04:37.067Z,11.53
2017-09-16T06:07:06.189Z,11.55
2017-09-16T06:09:35.302Z,11.61
2017-09-16T06:12:05.399Z,11.63
2017-09-16T06:14:35.322Z,11.68
2017-09-16T06:17:04.453Z,11.75
2017-09-16T06:19:33.628Z,11.83
2017-09-16T06:22:02.746Z,11.80
2017-09-16T06:24:32.675Z,11.80
2017-09-16T06:27:02.064Z,11.77
2017-09-16T06:29:31.257Z,11.69
2017-09-16T06:32:00.379Z,11.67
2017-09-16T06:34:29.660Z,11.69
2017-09-16T06:36:58.803Z,11.73
2017-09-16T06:39:27.920Z,11.74
2017-09-16T06:41:57.332Z,11.78
2017-09-16T06:44:27.209Z,11.83
2017-09-16T06:46:56.386Z,11.87
2017-09-16T06:49:25.628Z,11.88
2017-09-16T06:51:54.790Z,11.90
2017-09-16T06:54:23.982Z,11.94
2017-09-16T06:56:53.693Z,11.94
2017-09-16T06:59:22.905Z,12.00
2017-09-16T07:01:52.106Z,12.11
2017-09-16T07:04:21.722Z,12.16
2017-09-16T07:06:50.929Z,12.16
2017-09-16T07:09:20.136Z,12.16
2017-09-16T07:11:49.576Z,12.23
2017-09-16T07:14:18.774Z,12.29
2017-09-16T07:16:48.095Z,12.33
2017-09-16T07:19:17.660Z,12.36
2017-09-16T07:21:46.980Z,12.35
2017-09-16T07:24:16.977Z,12.41
2017-09-16T07:26:46.189Z,12.43
2017-09-16T07:29:16.391Z,12.52
2017-09-16T07:31:45.695Z,12.64
2017-09-16T07:34:16.840Z,12.77
2017-09-16T07:36:46.146Z,12.87
2017-09-16T07:39:15.478Z,12.91
2017-09-16T07:41:45.784Z,12.91
2017-09-16T07:44:15.122Z,12.82
2017-09-16T07:46:44.490Z,12.81
2017-09-16T07:49:13.869Z,12.80
2017-09-16T07:51:43.125Z,12.80
2017-09-16T07:54:12.652Z,12.85
2017-09-16T07:56:42.321Z,12.79
2017-09-16T07:59:11.557Z,12.87
2017-09-16T08:01:40.681Z,12.96
2017-09-16T08:04:10.095Z,12.96
2017-09-16T08:06:39.224Z,12.97
2017-09-16T08:09:08.347Z,12.89
2017-09-16T08:11:38.366Z,12.91
2017-09-16T08:14:07.509Z,12.90
2017-09-16T08:16:36.630Z,12.88
2017-09-16T08:19:05.986Z,12.98
2017-09-16T08:21:35.886Z,13.04
2017-09-16T08:24:05.813Z,13.12
2017-09-16T08:26:35.277Z,13.19
2017-09-16T08:29:04.418Z,13.08
2017-09-16T08:31:33.515Z,12.95
2017-09-16T08:34:02.800Z,12.95
2017-09-16T08:36:32.280Z,12.91
2017-09-16T08:39:01.394Z,12.82
2017-09-16T08:41:31.380Z,12.76
2017-09-16T08:44:00.529Z,12.70
2017-09-16T08:46:29.710Z,12.73
2017-09-16T08:49:00.326Z,12.80
2017-09-16T08:51:29.522Z,12.94
2017-09-16T08:53:58.633Z,12.95
2017-09-16T08:56:28.099Z,13.03
2017-09-16T08:58:57.845Z,13.16
2017-09-16T09:01:27.083Z,13.19
2017-09-16T09:03:56.346Z,13.13
2017-09-16T09:06:25.511Z,13.09
2017-09-16T09:08:54.663Z,13.15
2017-09-16T09:11:24.841Z,13.11
2017-09-16T09:13:53.994Z,13.11
2017-09-16T09:16:23.302Z,13.20
2017-09-16T09:18:52.737Z,13.21
2017-09-16T09:21:21.857Z,13.25
2017-09-16T09:23:51.007Z,13.31
2017-09-16T09:26:20.398Z,13.37
2017-09-16T09:28:49.535Z,13.41
2017-09-16T09:31:19.548Z,13.43
2017-09-16T09:33:49.006Z,13.52
2017-09-16T09:36:18.245Z,13.55
2017-09-16T09:38:47.527Z,13.62
2017-09-16T09:41:16.926Z,13.61
2017-09-16T09:43:46.082Z,13.58
2017-09-16T09:46:21.263Z,13.37
2017-09-16T09:48:50.489Z,13.11
2017-09-16T09:51:19.861Z,12.98
2017-09-16T09:53:50.091Z,12.96
2017-09-16T09:56:19.370Z,12.99
2017-09-16T09:58:48.820Z,12.99
2017-09-16T10:01:20.092Z,12.98
2017-09-16T10:03:49.332Z,13.02
2017-09-16T10:06:22.590Z,13.08
2017-09-16T10:08:52.736Z,13.05
2017-09-16T10:11:21.991Z,13.11
2017-09-16T10:13:52.357Z,13.21
2017-09-16T10:16:23.165Z,13.26
2017-09-16T10:18:52.526Z,13.34
2017-09-16T10:21:22.829Z,13.35
2017-09-16T10:23:52.752Z,13.35
2017-09-16T10:26:22.428Z,13.20
2017-09-16T10:28:52.171Z,13.18
2017-09-16T10:31:21.352Z,13.17
2017-09-16T10:33:51.986Z,13.21
2017-09-16T10:36:21.204Z,13.25
2017-09-16T10:38:51.144Z,13.33
2017-09-16T10:41:20.362Z,13.33
2017-09-16T10:43:49.908Z,13.26
2017-09-16T10:46:19.621Z,13.26
2017-09-16T10:48:49.580Z,13.23
2017-09-16T10:51:19.202Z,13.24
2017-09-16T10:53:48.534Z,13.35
2017-09-16T10:56:20.270Z,13.50
2017-09-16T10:58:50.325Z,13.67
2017-09-16T11:01:21.106Z,13.77
2017-09-16T11:03:51.477Z,13.90
2017-09-16T11:06:20.984Z,14.04
2017-09-16T11:08:52.024Z,14.08
2017-09-16T11:11:21.552Z,14.12
2017-09-16T11:13:51.563Z,14.17
2017-09-16T11:16:22.024Z,14.28
2017-09-16T11:18:51.491Z,14.38
2017-09-16T11:21:20.844Z,14.43
2017-09-16T11:23:50.745Z,14.48
2017-09-16T11:26:20.594Z,14.52
2017-09-16T11:28:51.808Z,14.54
2017-09-16T11:31:23.132Z,14.70
2017-09-16T11:33:52.587Z,14.75
2017-09-16T11:36:24.699Z,14.71
2017-09-16T11:38:55.868Z,14.80
2017-09-16T11:41:26.700Z,14.81
2017-09-16T11:43:56.010Z,14.87
2017-09-16T11:46:25.322Z,14.83
2017-09-16T11:48:54.533Z,14.85
2017-09-16T11:51:34.420Z,14.94
2017-09-16T11:54:04.399Z,15.03
2017-09-16T11:56:34.006Z,15.14
2017-09-16T11:59:04.029Z,15.25
2017-09-16T12:01:33.180Z,15.35
2017-09-16T12:04:02.546Z,15.28
2017-09-16T12:06:32.432Z,15.23
2017-09-16T12:09:02.116Z,15.29
2017-09-16T12:11:32.876Z,15.31
2017-09-16T12:14:01.987Z,15.29
2017-09-16T12:16:31.097Z,15.26
2017-09-16T12:19:00.697Z,15.23
2017-09-16T12:21:30.860Z,15.11
2017-09-16T12:23:59.995Z,15.02
2017-09-16T12:26:30.266Z,14.85
2017-09-16T12:28:59.525Z,14.91
2017-09-16T12:31:28.772Z,15.00
2017-09-16T12:33:58.731Z,15.07
2017-09-16T12:36:27.825Z,15.22
2017-09-16T12:38:56.923Z,15.34
2017-09-16T12:41:26.290Z,15.47
2017-09-16T12:43:55.423Z,15.39
2017-09-16T12:46:25.542Z,15.33
2017-09-16T12:48:54.976Z,15.21
2017-09-16T12:51:24.868Z,15.07
2017-09-16T12:53:54.741Z,14.94
2017-09-16T12:56:24.063Z,14.97
2017-09-16T12:58:54.157Z,14.85
2017-09-16T13:01:23.324Z,14.68
2017-09-16T13:03:54.241Z,14.50
2017-09-16T13:06:24.044Z,14.45
2017-09-16T13:08:53.211Z,14.46
2017-09-16T13:11:22.459Z,14.37
2017-09-16T13:13:51.686Z,14.36
2017-09-16T13:16:21.090Z,14.31
2017-09-16T13:18:50.724Z,14.33
2017-09-16T13:21:20.583Z,14.24
2017-09-16T13:23:50.975Z,14.23
2017-09-16T13:26:20.421Z,14.22
2017-09-16T13:28:49.724Z,14.26
2017-09-16T13:31:19.254Z,14.29
2017-09-16T13:33:49.513Z,14.33
2017-09-16T13:36:19.633Z,14.44
2017-09-16T13:38:49.779Z,14.54
2017-09-16T13:41:19.876Z,14.59
2017-09-16T13:43:51.903Z,14.60
2017-09-16T13:46:21.966Z,14.64
2017-09-16T13:48:51.124Z,14.66
2017-09-16T13:51:20.362Z,14.76
2017-09-16T13:53:49.907Z,14.90
2017-09-16T13:56:19.120Z,14.91
2017-09-16T13:58:48.346Z,14.84
2017-09-16T14:01:19.670Z,14.81
2017-09-16T14:03:48.996Z,14.74
2017-09-16T14:06:18.232Z,14.69
2017-09-16T14:08:52.474Z,14.65
2017-09-16T14:11:26.190Z,14.62
2017-09-16T14:14:01.083Z,14.60
2017-09-16T14:16:31.774Z,14.63
2017-09-16T14:19:01.555Z,14.67
2017-09-16T14:21:30.687Z,14.70
2017-09-16T14:23:59.804Z,14.95
2017-09-16T14:26:30.660Z,15.15
2017-09-16T14:29:00.744Z,15.27
2017-09-16T14:31:30.013Z,15.22
2017-09-16T14:33:59.527Z,15.18
2017-09-16T14:36:28.641Z,15.24
2017-09-16T14:38:59.170Z,15.31
2017-09-16T14:41:28.639Z,15.29
2017-09-16T14:43:57.989Z,15.34
2017-09-16T14:46:27.255Z,15.38
2017-09-16T14:48:56.407Z,15.31
2017-09-16T14:51:27.661Z,15.27
2017-09-16T14:53:57.546Z,15.20
2017-09-16T14:56:26.643Z,15.14
2017-09-16T14:58:56.878Z,15.14
2017-09-16T15:01:26.353Z,15.22
2017-09-16T15:03:55.529Z,15.31
2017-09-16T15:06:28.847Z,15.32
2017-09-16T15:09:01.573Z,15.16
2017-09-16T15:11:31.686Z,15.05
2017-09-16T15:14:00.821Z,14.91
2017-09-16T15:16:29.926Z,14.82
2017-09-16T15:18:59.469Z,14.75
2017-09-16T15:21:29.404Z,14.66
2017-09-16T15:23:58.591Z,14.64
2017-09-16T15:26:29.325Z,14.67
2017-09-16T15:29:00.880Z,14.75
2017-09-16T15:31:33.791Z,14.81
2017-09-16T15:34:04.088Z,15.00
2017-09-16T15:36:34.817Z,15.18
2017-09-16T15:39:04.253Z,15.27
2017-09-16T15:41:34.203Z,15.28
2017-09-16T15:44:06.382Z,15.24
2017-09-16T15:46:35.544Z,15.27
2017-09-16T15:49:04.656Z,15.27
2017-09-16T15:51:38.488Z,15.30
2017-09-16T15:54:12.428Z,15.33
2017-09-16T15:56:41.772Z,15.30
2017-09-16T15:59:11.710Z,15.22
2017-09-16T16:01:40.838Z,15.13
2017-09-16T16:04:10.236Z,14.95
2017-09-16T16:06:49.783Z,14.89
2017-09-16T16:09:19.262Z,14.66
2017-09-16T16:11:50.841Z,14.49
2017-09-16T16:14:21.847Z,14.42
2017-09-16T16:16:52.486Z,14.43
2017-09-16T16:19:33.605Z,14.51
2017-09-16T16:22:02.846Z,14.57
2017-09-16T16:24:32.328Z,14.58
2017-09-16T16:27:01.534Z,14.63
2017-09-16T16:29:33.190Z,14.68
2017-09-16T16:32:03.700Z,14.74
2017-09-16T16:34:37.844Z,14.79
2017-09-16T16:37:08.972Z,14.84
2017-09-16T16:39:45.153Z,14.86
2017-09-16T16:42:14.875Z,14.89
2017-09-16T16:44:47.473Z,14.89
2017-09-16T16:47:18.525Z,14.81
2017-09-16T16:49:49.672Z,14.70
2017-09-16T16:52:18.902Z,14.57
2017-09-16T16:54:48.080Z,14.46
2017-09-16T16:57:18.124Z,14.39
2017-09-16T16:59:47.761Z,14.34
2017-09-16T17:02:17.053Z,14.30
2017-09-16T17:04:46.765Z,14.30
2017-09-16T17:07:16.503Z,14.29
2017-09-16T17:09:45.772Z,14.30
2017-09-16T17:12:16.126Z,14.28
2017-09-16T17:14:47.037Z,14.26
2017-09-16T17:17:16.282Z,14.21
2017-09-16T17:19:50.189Z,14.17
2017-09-16T17:22:19.363Z,14.13
2017-09-16T17:24:48.492Z,14.10
2017-09-16T17:27:18.144Z,14.07
2017-09-16T17:29:52.478Z,14.06
2017-09-16T17:32:23.250Z,14.04
2017-09-16T17:34:52.447Z,14.02
2017-09-16T17:37:22.147Z,14.00
2017-09-16T17:39:53.124Z,14.01
2017-09-16T17:42:24.569Z,13.99
2017-09-16T17:44:54.004Z,13.98
2017-09-16T17:47:23.738Z,13.97
2017-09-16T17:49:53.885Z,13.98
2017-09-16T17:52:24.611Z,13.99
2017-09-16T17:54:56.959Z,14.00
2017-09-16T17:57:26.421Z,14.00
2017-09-16T17:59:55.576Z,14.01
2017-09-16T18:02:24.926Z,14.02
2017-09-16T18:04:55.010Z,14.03
2017-09-16T18:07:24.905Z,14.04
2017-09-16T18:09:54.153Z,14.05
2017-09-16T18:12:24.495Z,14.06
2017-09-16T18:14:54.421Z,14.11
2017-09-16T18:17:24.218Z,14.16
2017-09-16T18:19:54.116Z,14.20
2017-09-16T18:22:24.338Z,14.19
2017-09-16T18:24:54.254Z,14.21
2017-09-16T18:27:23.460Z,14.24
2017-09-16T18:29:52.624Z,14.27
2017-09-16T18:32:22.070Z,14.33
2017-09-16T18:34:51.304Z,14.32
2017-09-16T18:37:20.564Z,14.29
2017-09-16T18:39:51.123Z,14.27
2017-09-16T18:42:20.306Z,14.30
2017-09-16T18:44:49.805Z,14.30
2017-09-16T18:47:19.402Z,14.28
2017-09-16T18:49:48.623Z,14.27
2017-09-16T18:52:19.183Z,14.27
2017-09-16T18:54:49.287Z,14.27
2017-09-16T18:57:18.463Z,14.23
2017-09-16T18:59:48.346Z,14.22
2017-09-16T19:02:18.772Z,14.21
2017-09-16T19:04:47.911Z,14.17
2017-09-16T19:07:17.141Z,14.19
2017-09-16T19:09:46.840Z,14.15
2017-09-16T19:12:16.307Z,14.10
2017-09-16T19:14:47.290Z,14.08
2017-09-16T19:17:17.029Z,14.06
2017-09-16T19:19:46.676Z,14.05
2017-09-16T19:22:16.082Z,14.07
2017-09-16T19:24:45.728Z,14.03
2017-09-16T19:27:16.041Z,14.01
2017-09-16T19:29:46.835Z,13.99
2017-09-16T19:32:16.535Z,13.95
2017-09-16T19:34:47.694Z,13.94
2017-09-16T19:37:16.877Z,13.91
2017-09-16T19:39:46.156Z,13.90
2017-09-16T19:42:15.832Z,13.89
2017-09-16T19:44:46.127Z,13.88
2017-09-16T19:47:16.618Z,13.86
2017-09-16T19:49:45.986Z,13.86
2017-09-16T19:52:16.046Z,13.86
2017-09-16T19:54:45.467Z,13.81
2017-09-16T19:57:15.710Z,13.75
2017-09-16T19:59:45.029Z,13.68
2017-09-16T20:02:14.250Z,13.62
2017-09-16T20:04:44.692Z,13.59
2017-09-16T20:07:13.900Z,13.56
2017-09-16T20:09:43.020Z,13.53
2017-09-16T20:12:13.137Z,13.53
2017-09-16T20:14:43.111Z,13.51
2017-09-16T20:17:12.355Z,13.47
2017-09-16T20:19:41.871Z,13.45
2017-09-16T20:22:11.292Z,13.44
2017-09-16T20:24:40.462Z,13.44
2017-09-16T20:27:09.782Z,13.45
2017-09-16T20:29:39.025Z,13.47
2017-09-16T20:32:08.172Z,13.49
2017-09-16T20:34:37.438Z,13.53
2017-09-16T20:37:07.376Z,13.54
2017-09-16T20:39:36.526Z,13.55
2017-09-16T20:42:06.551Z,13.53
2017-09-16T20:44:35.662Z,13.53
2017-09-16T20:47:04.753Z,13.53
2017-09-16T20:49:34.029Z,13.53
2017-09-16T20:52:03.155Z,13.49
2017-09-16T20:54:33.074Z,13.48
2017-09-16T20:57:02.260Z,13.50
2017-09-16T20:59:31.398Z,13.52
2017-09-16T21:02:00.518Z,13.52
2017-09-16T21:04:29.756Z,13.52
2017-09-16T21:06:58.846Z,13.51
2017-09-16T21:09:28.715Z,13.48
2017-09-16T21:11:58.013Z,13.43
2017-09-16T21:14:27.124Z,13.40
2017-09-16T21:16:57.020Z,13.39
2017-09-16T21:19:27.058Z,13.36
2017-09-16T21:21:56.151Z,13.29
2017-09-16T21:24:25.255Z,13.25
2017-09-16T21:26:55.810Z,13.22
2017-09-16T21:29:24.958Z,13.16
2017-09-16T21:31:54.887Z,13.09
2017-09-16T21:34:24.959Z,13.02
2017-09-16T21:36:54.092Z,13.01
2017-09-16T21:39:23.375Z,13.06
2017-09-16T21:41:52.819Z,13.09
2017-09-16T21:44:22.688Z,13.13
2017-09-16T21:46:51.804Z,13.18
2017-09-16T21:49:21.899Z,13.21
2017-09-16T21:51:51.766Z,13.22
2017-09-16T21:54:20.919Z,13.22
2017-09-16T21:56:50.651Z,13.25
2017-09-16T21:59:19.758Z,13.26
2017-09-16T22:01:49.657Z,13.34
2017-09-16T22:04:19.695Z,13.15
2017-09-16T22:06:48.870Z,13.14
2017-09-16T22:09:18.146Z,13.15
2017-09-16T22:11:47.938Z,13.21
2017-09-16T22:14:18.080Z,13.24
2017-09-16T22:16:47.231Z,13.25
2017-09-16T22:19:16.794Z,13.27
2017-09-16T22:21:46.709Z,13.24
2017-09-16T22:24:16.746Z,13.24
2017-09-16T22:26:46.070Z,13.18
2017-09-16T22:29:15.286Z,13.17
2017-09-16T22:31:44.426Z,13.22
2017-09-16T22:34:14.775Z,13.26
2017-09-16T22:36:43.940Z,13.26
2017-09-16T22:39:13.105Z,13.25
2017-09-16T22:41:42.350Z,13.23
2017-09-16T22:44:11.563Z,13.20
2017-09-16T22:46:40.771Z,13.19
2017-09-16T22:49:10.212Z,13.18
2017-09-16T22:51:39.386Z,13.15
2017-09-16T22:54:08.502Z,13.15
2017-09-16T22:56:37.810Z,13.13
2017-09-16T22:59:06.897Z,13.10
2017-09-16T23:01:36.815Z,13.08
2017-09-16T23:04:06.256Z,13.10
2017-09-16T23:06:35.374Z,13.13
2017-09-16T23:09:05.291Z,13.15
2017-09-16T23:11:34.709Z,13.12
2017-09-16T23:14:03.840Z,13.12
2017-09-16T23:16:32.965Z,13.09
2017-09-16T23:19:04.151Z,13.10
2017-09-16T23:21:33.271Z,13.04
2017-09-16T23:24:02.394Z,13.00
2017-09-16T23:26:31.598Z,12.96
2017-09-16T23:29:02.944Z,12.94
2017-09-16T23:31:32.084Z,12.94
2017-09-16T23:34:01.270Z,12.94
2017-09-16T23:36:30.392Z,12.94
2017-09-16T23:38:59.738Z,12.96
2017-09-16T23:41:29.622Z,12.97
2017-09-16T23:43:58.891Z,12.96
2017-09-16T23:46:28.408Z,12.96
2017-09-16T23:48:58.287Z,12.96
2017-09-16T23:51:27.472Z,12.94
2017-09-16T23:53:58.535Z,12.95
2017-09-16T23:56:28.401Z,12.92
2017-09-16T23:58:57.523Z,12.95
